sensor_id;sensor_type;location;lat;lon;timestamp;P1;durP1;ratioP1;P2;durP2;ratioP2
50851;SDS011;43953;45.508;-122.806;2022-08-19T00:00:00;8.38;;;5.88;;
50851;SDS011;43953;45.508;-122.806;2022-08-19T00:00:31;7.07;;;6.20;;
50851;SDS011;43953;45.508;-122.806;2022-08-19T00:01:03;11.50;;;7.30;;
50851;SDS011;43953;45.508;-122.806;2022-08-19T00:01:36;8.40;;;6.90;;
50851;SDS011;43953;45.508;-122.806;2022-08-19T00:02:09;7.93;;;6.50;;
50851;SDS011;43953;45.508;-122.806;2022-08-19T00:02:41;8.45;;;5.70;;
50851;SDS011;43953;45.508;-122.806;2022-08-19T00:03:13;6.15;;;5.28;;
50851;SDS011;43953;45.508;-122.806;2022-08-19T00:03:45;6.78;;;5.32;;
50851;SDS011;43953;45.508;-122.806;2022-08-19T00:04:17;9.25;;;5.47;;
50851;SDS011;43953;45.508;-122.806;2022-08-19T00:04:51;6.82;;;5.80;;
50851;SDS011;43953;45.508;-122.806;2022-08-19T00:05:25;6.22;;;5.63;;
50851;SDS011;43953;45.508;-122.806;2022-08-19T00:05:57;9.23;;;5.88;;
50851;SDS011;43953;45.508;-122.806;2022-08-19T00:06:29;7.30;;;5.53;;
50851;SDS011;43953;45.508;-122.806;2022-08-19T00:07:02;7.90;;;5.70;;
50851;SDS011;43953;45.508;-122.806;2022-08-19T00:07:35;7.20;;;5.47;;
50851;SDS011;43953;45.508;-122.806;2022-08-19T00:08:08;9.25;;;6.03;;
50851;SDS011;43953;45.508;-122.806;2022-08-19T00:08:40;6.95;;;5.78;;
50851;SDS011;43953;45.508;-122.806;2022-08-19T00:09:12;6.45;;;5.70;;
50851;SDS011;43953;45.508;-122.806;2022-08-19T00:09:46;7.97;;;5.90;;
50851;SDS011;43953;45.508;-122.806;2022-08-19T00:10:18;6.63;;;5.20;;
50851;SDS011;43953;45.508;-122.806;2022-08-19T00:10:50;10.55;;;6.15;;
50851;SDS011;43953;45.508;-122.806;2022-08-19T00:11:23;7.65;;;5.78;;
50851;SDS011;43953;45.508;-122.806;2022-08-19T00:11:56;6.50;;;5.70;;
50851;SDS011;43953;45.508;-122.806;2022-08-19T00:12:29;8.15;;;5.85;;
50851;SDS011;43953;45.508;-122.806;2022-08-19T00:13:00;7.88;;;5.43;;
50851;SDS011;43953;45.508;-122.806;2022-08-19T00:13:32;6.35;;;5.38;;
50851;SDS011;43953;45.508;-122.806;2022-08-19T00:14:05;8.50;;;6.18;;
50851;SDS011;43953;45.508;-122.806;2022-08-19T00:14:40;7.28;;;5.20;;
50851;SDS011;43953;45.508;-122.806;2022-08-19T00:15:13;7.20;;;5.68;;
50851;SDS011;43953;45.508;-122.806;2022-08-19T00:15:47;7.80;;;5.57;;
50851;SDS011;43953;45.508;-122.806;2022-08-19T00:16:19;6.43;;;5.50;;
50851;SDS011;43953;45.508;-122.806;2022-08-19T00:16:51;5.97;;;5.03;;
50851;SDS011;43953;45.508;-122.806;2022-08-19T00:17:25;7.15;;;5.13;;
50851;SDS011;43953;45.508;-122.806;2022-08-19T00:17:56;6.90;;;4.80;;
50851;SDS011;43953;45.508;-122.806;2022-08-19T00:18:28;6.57;;;4.78;;
50851;SDS011;43953;45.508;-122.806;2022-08-19T00:19:00;6.68;;;4.90;;
50851;SDS011;43953;45.508;-122.806;2022-08-19T00:19:31;5.88;;;5.10;;
50851;SDS011;43953;45.508;-122.806;2022-08-19T00:20:04;6.38;;;4.75;;
50851;SDS011;43953;45.508;-122.806;2022-08-19T00:20:36;6.30;;;4.72;;
50851;SDS011;43953;45.508;-122.806;2022-08-19T00:21:11;6.13;;;4.72;;
50851;SDS011;43953;45.508;-122.806;2022-08-19T00:21:42;6.70;;;4.93;;
50851;SDS011;43953;45.508;-122.806;2022-08-19T00:22:14;8.25;;;4.40;;
50851;SDS011;43953;45.508;-122.806;2022-08-19T00:22:48;6.47;;;4.70;;
50851;SDS011;43953;45.508;-122.806;2022-08-19T00:23:20;5.47;;;4.97;;
50851;SDS011;43953;45.508;-122.806;2022-08-19T00:23:52;6.38;;;4.80;;
50851;SDS011;43953;45.508;-122.806;2022-08-19T00:24:25;7.05;;;5.07;;
50851;SDS011;43953;45.508;-122.806;2022-08-19T00:24:56;4.82;;;4.43;;
50851;SDS011;43953;45.508;-122.806;2022-08-19T00:25:28;5.32;;;4.82;;
50851;SDS011;43953;45.508;-122.806;2022-08-19T00:26:00;5.13;;;4.63;;
50851;SDS011;43953;45.508;-122.806;2022-08-19T00:26:32;7.90;;;5.15;;
50851;SDS011;43953;45.508;-122.806;2022-08-19T00:27:04;6.63;;;4.63;;
50851;SDS011;43953;45.508;-122.806;2022-08-19T00:27:36;7.70;;;4.95;;
50851;SDS011;43953;45.508;-122.806;2022-08-19T00:28:08;6.75;;;5.03;;
50851;SDS011;43953;45.508;-122.806;2022-08-19T00:28:40;5.00;;;4.50;;
50851;SDS011;43953;45.508;-122.806;2022-08-19T00:29:13;5.95;;;4.43;;
50851;SDS011;43953;45.508;-122.806;2022-08-19T00:29:47;5.45;;;4.50;;
50851;SDS011;43953;45.508;-122.806;2022-08-19T00:30:18;4.90;;;4.28;;
50851;SDS011;43953;45.508;-122.806;2022-08-19T00:30:50;5.72;;;4.95;;
50851;SDS011;43953;45.508;-122.806;2022-08-19T00:31:23;6.80;;;4.53;;
50851;SDS011;43953;45.508;-122.806;2022-08-19T00:31:56;5.45;;;4.45;;
50851;SDS011;43953;45.508;-122.806;2022-08-19T00:32:30;7.30;;;4.47;;
50851;SDS011;43953;45.508;-122.806;2022-08-19T00:33:02;5.10;;;4.60;;
50851;SDS011;43953;45.508;-122.806;2022-08-19T00:33:34;5.43;;;4.50;;
50851;SDS011;43953;45.508;-122.806;2022-08-19T00:34:05;6.32;;;4.45;;
50851;SDS011;43953;45.508;-122.806;2022-08-19T00:34:37;6.57;;;4.57;;
50851;SDS011;43953;45.508;-122.806;2022-08-19T00:35:09;7.65;;;4.70;;
50851;SDS011;43953;45.508;-122.806;2022-08-19T00:35:41;5.68;;;4.80;;
50851;SDS011;43953;45.508;-122.806;2022-08-19T00:36:13;5.00;;;4.50;;
50851;SDS011;43953;45.508;-122.806;2022-08-19T00:36:44;5.47;;;4.20;;
50851;SDS011;43953;45.508;-122.806;2022-08-19T00:37:16;6.22;;;4.57;;
50851;SDS011;43953;45.508;-122.806;2022-08-19T00:37:49;7.55;;;4.65;;
50851;SDS011;43953;45.508;-122.806;2022-08-19T00:38:21;9.38;;;4.85;;
50851;SDS011;43953;45.508;-122.806;2022-08-19T00:38:53;6.20;;;4.60;;
50851;SDS011;43953;45.508;-122.806;2022-08-19T00:39:25;5.82;;;4.40;;
50851;SDS011;43953;45.508;-122.806;2022-08-19T00:39:56;6.72;;;5.20;;
50851;SDS011;43953;45.508;-122.806;2022-08-19T00:40:28;9.60;;;5.10;;
50851;SDS011;43953;45.508;-122.806;2022-08-19T00:41:01;5.57;;;4.22;;
50851;SDS011;43953;45.508;-122.806;2022-08-19T00:41:33;4.95;;;4.53;;
50851;SDS011;43953;45.508;-122.806;2022-08-19T00:42:05;5.80;;;4.88;;
50851;SDS011;43953;45.508;-122.806;2022-08-19T00:42:37;8.43;;;4.50;;
50851;SDS011;43953;45.508;-122.806;2022-08-19T00:43:09;6.57;;;4.57;;
50851;SDS011;43953;45.508;-122.806;2022-08-19T00:43:50;6.28;;;4.60;;
50851;SDS011;43953;45.508;-122.806;2022-08-19T00:44:38;8.10;;;4.97;;
50851;SDS011;43953;45.508;-122.806;2022-08-19T00:45:12;8.02;;;4.90;;
50851;SDS011;43953;45.508;-122.806;2022-08-19T00:45:51;4.75;;;4.35;;
50851;SDS011;43953;45.508;-122.806;2022-08-19T00:46:23;6.28;;;5.05;;
50851;SDS011;43953;45.508;-122.806;2022-08-19T00:46:55;7.43;;;5.20;;
50851;SDS011;43953;45.508;-122.806;2022-08-19T00:47:29;6.85;;;5.30;;
50851;SDS011;43953;45.508;-122.806;2022-08-19T00:48:02;7.10;;;5.13;;
50851;SDS011;43953;45.508;-122.806;2022-08-19T00:48:35;9.27;;;5.22;;
50851;SDS011;43953;45.508;-122.806;2022-08-19T00:49:10;7.43;;;5.47;;
50851;SDS011;43953;45.508;-122.806;2022-08-19T00:49:48;6.38;;;5.43;;
50851;SDS011;43953;45.508;-122.806;2022-08-19T00:50:23;6.97;;;5.55;;
50851;SDS011;43953;45.508;-122.806;2022-08-19T00:50:55;7.10;;;5.22;;
50851;SDS011;43953;45.508;-122.806;2022-08-19T00:51:27;8.07;;;5.43;;
50851;SDS011;43953;45.508;-122.806;2022-08-19T00:52:06;6.95;;;4.93;;
50851;SDS011;43953;45.508;-122.806;2022-08-19T00:52:42;8.20;;;5.47;;
50851;SDS011;43953;45.508;-122.806;2022-08-19T00:53:18;8.68;;;4.88;;
50851;SDS011;43953;45.508;-122.806;2022-08-19T00:53:53;7.85;;;5.75;;
50851;SDS011;43953;45.508;-122.806;2022-08-19T00:54:28;6.80;;;4.80;;
50851;SDS011;43953;45.508;-122.806;2022-08-19T00:55:03;6.13;;;5.13;;
50851;SDS011;43953;45.508;-122.806;2022-08-19T00:55:41;7.40;;;5.22;;
50851;SDS011;43953;45.508;-122.806;2022-08-19T00:56:16;7.40;;;5.40;;
50851;SDS011;43953;45.508;-122.806;2022-08-19T00:56:49;10.02;;;5.55;;
50851;SDS011;43953;45.508;-122.806;2022-08-19T00:57:32;11.98;;;5.45;;
50851;SDS011;43953;45.508;-122.806;2022-08-19T00:58:09;7.93;;;5.47;;
50851;SDS011;43953;45.508;-122.806;2022-08-19T00:58:45;6.65;;;5.97;;
50851;SDS011;43953;45.508;-122.806;2022-08-19T00:59:17;8.52;;;5.28;;
50851;SDS011;43953;45.508;-122.806;2022-08-19T00:59:51;10.35;;;5.35;;
50851;SDS011;43953;45.508;-122.806;2022-08-19T01:00:27;7.07;;;4.97;;
50851;SDS011;43953;45.508;-122.806;2022-08-19T01:01:00;12.90;;;5.40;;
50851;SDS011;43953;45.508;-122.806;2022-08-19T01:01:33;7.82;;;5.50;;
50851;SDS011;43953;45.508;-122.806;2022-08-19T01:02:07;7.03;;;5.30;;
50851;SDS011;43953;45.508;-122.806;2022-08-19T01:02:40;6.40;;;5.28;;
50851;SDS011;43953;45.508;-122.806;2022-08-19T01:03:14;9.25;;;5.60;;
50851;SDS011;43953;45.508;-122.806;2022-08-19T01:03:47;6.97;;;5.15;;
50851;SDS011;43953;45.508;-122.806;2022-08-19T01:04:19;5.80;;;5.20;;
50851;SDS011;43953;45.508;-122.806;2022-08-19T01:04:50;7.50;;;5.32;;
50851;SDS011;43953;45.508;-122.806;2022-08-19T01:05:24;9.60;;;5.65;;
50851;SDS011;43953;45.508;-122.806;2022-08-19T01:05:59;7.57;;;5.47;;
50851;SDS011;43953;45.508;-122.806;2022-08-19T01:06:31;8.98;;;5.88;;
50851;SDS011;43953;45.508;-122.806;2022-08-19T01:07:04;7.60;;;5.45;;
50851;SDS011;43953;45.508;-122.806;2022-08-19T01:07:37;6.97;;;5.30;;
50851;SDS011;43953;45.508;-122.806;2022-08-19T01:08:11;7.03;;;5.72;;
50851;SDS011;43953;45.508;-122.806;2022-08-19T01:08:45;8.85;;;5.57;;
50851;SDS011;43953;45.508;-122.806;2022-08-19T01:09:16;6.60;;;5.53;;
50851;SDS011;43953;45.508;-122.806;2022-08-19T01:09:48;11.25;;;5.50;;
50851;SDS011;43953;45.508;-122.806;2022-08-19T01:10:21;7.97;;;5.30;;
50851;SDS011;43953;45.508;-122.806;2022-08-19T01:10:56;7.43;;;5.63;;
50851;SDS011;43953;45.508;-122.806;2022-08-19T01:11:30;10.70;;;6.32;;
50851;SDS011;43953;45.508;-122.806;2022-08-19T01:12:04;6.38;;;5.75;;
50851;SDS011;43953;45.508;-122.806;2022-08-19T01:12:36;7.93;;;5.22;;
50851;SDS011;43953;45.508;-122.806;2022-08-19T01:13:09;7.18;;;5.30;;
50851;SDS011;43953;45.508;-122.806;2022-08-19T01:13:42;9.63;;;5.93;;
50851;SDS011;43953;45.508;-122.806;2022-08-19T01:14:14;6.18;;;5.03;;
50851;SDS011;43953;45.508;-122.806;2022-08-19T01:14:47;7.93;;;5.63;;
50851;SDS011;43953;45.508;-122.806;2022-08-19T01:15:24;10.75;;;5.65;;
50851;SDS011;43953;45.508;-122.806;2022-08-19T01:16:01;10.95;;;6.05;;
50851;SDS011;43953;45.508;-122.806;2022-08-19T01:16:36;8.07;;;5.85;;
50851;SDS011;43953;45.508;-122.806;2022-08-19T01:17:10;8.40;;;5.88;;
50851;SDS011;43953;45.508;-122.806;2022-08-19T01:17:43;7.20;;;5.43;;
50851;SDS011;43953;45.508;-122.806;2022-08-19T01:18:17;8.05;;;5.95;;
50851;SDS011;43953;45.508;-122.806;2022-08-19T01:18:50;6.65;;;6.00;;
50851;SDS011;43953;45.508;-122.806;2022-08-19T01:19:33;7.65;;;6.20;;
50851;SDS011;43953;45.508;-122.806;2022-08-19T01:20:13;9.13;;;5.65;;
50851;SDS011;43953;45.508;-122.806;2022-08-19T01:20:47;8.25;;;5.32;;
50851;SDS011;43953;45.508;-122.806;2022-08-19T01:22:14;8.77;;;5.82;;
50851;SDS011;43953;45.508;-122.806;2022-08-19T01:22:56;6.55;;;5.85;;
50851;SDS011;43953;45.508;-122.806;2022-08-19T01:23:28;5.97;;;5.38;;
50851;SDS011;43953;45.508;-122.806;2022-08-19T01:24:20;9.15;;;5.70;;
50851;SDS011;43953;45.508;-122.806;2022-08-19T01:24:52;8.25;;;5.88;;
50851;SDS011;43953;45.508;-122.806;2022-08-19T01:25:35;7.20;;;5.72;;
50851;SDS011;43953;45.508;-122.806;2022-08-19T01:26:22;6.70;;;5.32;;
50851;SDS011;43953;45.508;-122.806;2022-08-19T01:26:55;8.90;;;5.93;;
50851;SDS011;43953;45.508;-122.806;2022-08-19T01:27:36;6.90;;;5.53;;
50851;SDS011;43953;45.508;-122.806;2022-08-19T01:28:20;7.43;;;5.95;;
50851;SDS011;43953;45.508;-122.806;2022-08-19T01:28:58;8.45;;;5.50;;
50851;SDS011;43953;45.508;-122.806;2022-08-19T01:29:31;7.78;;;6.00;;
50851;SDS011;43953;45.508;-122.806;2022-08-19T01:30:04;6.70;;;5.60;;
50851;SDS011;43953;45.508;-122.806;2022-08-19T01:30:37;8.85;;;5.70;;
50851;SDS011;43953;45.508;-122.806;2022-08-19T01:31:16;9.70;;;5.75;;
50851;SDS011;43953;45.508;-122.806;2022-08-19T01:31:51;8.48;;;5.95;;
50851;SDS011;43953;45.508;-122.806;2022-08-19T01:32:24;7.18;;;5.55;;
50851;SDS011;43953;45.508;-122.806;2022-08-19T01:32:56;7.80;;;5.80;;
50851;SDS011;43953;45.508;-122.806;2022-08-19T01:33:31;6.95;;;5.32;;
50851;SDS011;43953;45.508;-122.806;2022-08-19T01:34:03;6.82;;;5.45;;
50851;SDS011;43953;45.508;-122.806;2022-08-19T01:34:34;7.53;;;5.40;;
50851;SDS011;43953;45.508;-122.806;2022-08-19T01:35:06;6.90;;;5.60;;
50851;SDS011;43953;45.508;-122.806;2022-08-19T01:35:39;7.15;;;5.38;;
50851;SDS011;43953;45.508;-122.806;2022-08-19T01:36:13;7.70;;;5.43;;
50851;SDS011;43953;45.508;-122.806;2022-08-19T01:36:47;8.88;;;5.72;;
50851;SDS011;43953;45.508;-122.806;2022-08-19T01:37:19;7.18;;;5.63;;
50851;SDS011;43953;45.508;-122.806;2022-08-19T01:37:53;6.68;;;5.57;;
50851;SDS011;43953;45.508;-122.806;2022-08-19T01:38:26;6.93;;;5.45;;
50851;SDS011;43953;45.508;-122.806;2022-08-19T01:39:07;6.85;;;5.40;;
50851;SDS011;43953;45.508;-122.806;2022-08-19T01:39:42;8.60;;;5.57;;
50851;SDS011;43953;45.508;-122.806;2022-08-19T01:40:14;6.93;;;5.43;;
50851;SDS011;43953;45.508;-122.806;2022-08-19T01:40:47;6.40;;;5.70;;
50851;SDS011;43953;45.508;-122.806;2022-08-19T01:41:19;9.07;;;6.05;;
50851;SDS011;43953;45.508;-122.806;2022-08-19T01:41:53;6.55;;;5.68;;
50851;SDS011;43953;45.508;-122.806;2022-08-19T01:42:25;8.52;;;5.75;;
50851;SDS011;43953;45.508;-122.806;2022-08-19T01:42:57;9.32;;;5.70;;
50851;SDS011;43953;45.508;-122.806;2022-08-19T01:43:30;6.55;;;5.60;;
50851;SDS011;43953;45.508;-122.806;2022-08-19T01:44:02;8.50;;;5.30;;
50851;SDS011;43953;45.508;-122.806;2022-08-19T01:44:34;9.35;;;5.90;;
50851;SDS011;43953;45.508;-122.806;2022-08-19T01:45:07;7.30;;;5.57;;
50851;SDS011;43953;45.508;-122.806;2022-08-19T01:45:39;7.72;;;5.78;;
50851;SDS011;43953;45.508;-122.806;2022-08-19T01:46:11;8.90;;;6.03;;
50851;SDS011;43953;45.508;-122.806;2022-08-19T01:46:43;9.68;;;5.90;;
50851;SDS011;43953;45.508;-122.806;2022-08-19T01:47:16;8.13;;;5.60;;
50851;SDS011;43953;45.508;-122.806;2022-08-19T01:47:47;7.50;;;5.60;;
50851;SDS011;43953;45.508;-122.806;2022-08-19T01:48:20;8.02;;;5.63;;
50851;SDS011;43953;45.508;-122.806;2022-08-19T01:48:52;6.90;;;5.30;;
50851;SDS011;43953;45.508;-122.806;2022-08-19T01:49:24;7.68;;;6.13;;
50851;SDS011;43953;45.508;-122.806;2022-08-19T01:49:57;6.15;;;5.45;;
50851;SDS011;43953;45.508;-122.806;2022-08-19T01:50:30;7.20;;;5.45;;
50851;SDS011;43953;45.508;-122.806;2022-08-19T01:51:03;7.60;;;5.57;;
50851;SDS011;43953;45.508;-122.806;2022-08-19T01:51:35;7.90;;;5.28;;
50851;SDS011;43953;45.508;-122.806;2022-08-19T01:52:08;6.22;;;5.65;;
50851;SDS011;43953;45.508;-122.806;2022-08-19T01:52:40;6.93;;;5.57;;
50851;SDS011;43953;45.508;-122.806;2022-08-19T01:53:13;6.57;;;5.28;;
50851;SDS011;43953;45.508;-122.806;2022-08-19T01:53:47;6.82;;;5.88;;
50851;SDS011;43953;45.508;-122.806;2022-08-19T01:54:19;7.38;;;5.50;;
50851;SDS011;43953;45.508;-122.806;2022-08-19T01:54:52;6.00;;;5.40;;
50851;SDS011;43953;45.508;-122.806;2022-08-19T01:55:24;6.88;;;5.72;;
50851;SDS011;43953;45.508;-122.806;2022-08-19T01:55:56;6.40;;;5.50;;
50851;SDS011;43953;45.508;-122.806;2022-08-19T01:56:29;6.30;;;5.50;;
50851;SDS011;43953;45.508;-122.806;2022-08-19T01:57:02;5.95;;;5.35;;
50851;SDS011;43953;45.508;-122.806;2022-08-19T01:57:37;8.63;;;5.72;;
50851;SDS011;43953;45.508;-122.806;2022-08-19T01:58:12;8.70;;;5.60;;
50851;SDS011;43953;45.508;-122.806;2022-08-19T01:58:53;7.65;;;5.35;;
50851;SDS011;43953;45.508;-122.806;2022-08-19T01:59:31;7.07;;;5.47;;
50851;SDS011;43953;45.508;-122.806;2022-08-19T02:00:05;10.52;;;5.13;;
50851;SDS011;43953;45.508;-122.806;2022-08-19T02:00:43;9.40;;;5.40;;
50851;SDS011;43953;45.508;-122.806;2022-08-19T02:01:16;6.55;;;5.60;;
50851;SDS011;43953;45.508;-122.806;2022-08-19T02:01:48;6.70;;;5.53;;
50851;SDS011;43953;45.508;-122.806;2022-08-19T02:02:20;6.65;;;5.95;;
50851;SDS011;43953;45.508;-122.806;2022-08-19T02:02:51;6.25;;;5.25;;
50851;SDS011;43953;45.508;-122.806;2022-08-19T02:03:23;7.95;;;5.50;;
50851;SDS011;43953;45.508;-122.806;2022-08-19T02:03:55;8.50;;;5.68;;
50851;SDS011;43953;45.508;-122.806;2022-08-19T02:04:27;6.13;;;5.40;;
50851;SDS011;43953;45.508;-122.806;2022-08-19T02:04:58;6.40;;;5.57;;
50851;SDS011;43953;45.508;-122.806;2022-08-19T02:05:30;7.38;;;5.60;;
50851;SDS011;43953;45.508;-122.806;2022-08-19T02:06:02;7.47;;;5.47;;
50851;SDS011;43953;45.508;-122.806;2022-08-19T02:06:35;8.27;;;5.72;;
50851;SDS011;43953;45.508;-122.806;2022-08-19T02:07:08;8.00;;;5.10;;
50851;SDS011;43953;45.508;-122.806;2022-08-19T02:07:40;6.10;;;5.45;;
50851;SDS011;43953;45.508;-122.806;2022-08-19T02:08:12;7.30;;;5.85;;
50851;SDS011;43953;45.508;-122.806;2022-08-19T02:08:43;8.98;;;5.78;;
50851;SDS011;43953;45.508;-122.806;2022-08-19T02:09:19;6.97;;;5.38;;
50851;SDS011;43953;45.508;-122.806;2022-08-19T02:09:51;7.82;;;5.63;;
50851;SDS011;43953;45.508;-122.806;2022-08-19T02:10:23;6.60;;;5.60;;
50851;SDS011;43953;45.508;-122.806;2022-08-19T02:10:55;6.00;;;5.40;;
50851;SDS011;43953;45.508;-122.806;2022-08-19T02:11:28;6.28;;;5.40;;
50851;SDS011;43953;45.508;-122.806;2022-08-19T02:12:03;6.85;;;5.70;;
50851;SDS011;43953;45.508;-122.806;2022-08-19T02:12:35;7.50;;;5.53;;
50851;SDS011;43953;45.508;-122.806;2022-08-19T02:13:07;7.72;;;5.70;;
50851;SDS011;43953;45.508;-122.806;2022-08-19T02:13:39;6.30;;;5.72;;
50851;SDS011;43953;45.508;-122.806;2022-08-19T02:14:11;10.27;;;5.20;;
50851;SDS011;43953;45.508;-122.806;2022-08-19T02:14:43;6.68;;;5.45;;
50851;SDS011;43953;45.508;-122.806;2022-08-19T02:15:15;6.63;;;5.72;;
50851;SDS011;43953;45.508;-122.806;2022-08-19T02:15:49;7.63;;;5.35;;
50851;SDS011;43953;45.508;-122.806;2022-08-19T02:16:21;5.97;;;5.35;;
50851;SDS011;43953;45.508;-122.806;2022-08-19T02:16:53;8.82;;;5.65;;
50851;SDS011;43953;45.508;-122.806;2022-08-19T02:17:25;8.32;;;5.60;;
50851;SDS011;43953;45.508;-122.806;2022-08-19T02:17:56;6.63;;;5.80;;
50851;SDS011;43953;45.508;-122.806;2022-08-19T02:18:29;6.75;;;5.28;;
50851;SDS011;43953;45.508;-122.806;2022-08-19T02:19:00;6.28;;;5.38;;
50851;SDS011;43953;45.508;-122.806;2022-08-19T02:19:32;7.30;;;5.60;;
50851;SDS011;43953;45.508;-122.806;2022-08-19T02:20:04;10.82;;;5.65;;
50851;SDS011;43953;45.508;-122.806;2022-08-19T02:20:38;6.32;;;5.72;;
50851;SDS011;43953;45.508;-122.806;2022-08-19T02:21:10;5.88;;;5.28;;
50851;SDS011;43953;45.508;-122.806;2022-08-19T02:21:43;6.93;;;5.25;;
50851;SDS011;43953;45.508;-122.806;2022-08-19T02:22:15;8.52;;;5.65;;
50851;SDS011;43953;45.508;-122.806;2022-08-19T02:22:47;6.47;;;5.45;;
50851;SDS011;43953;45.508;-122.806;2022-08-19T02:23:19;6.65;;;5.70;;
50851;SDS011;43953;45.508;-122.806;2022-08-19T02:23:50;6.35;;;5.55;;
50851;SDS011;43953;45.508;-122.806;2022-08-19T02:24:22;6.03;;;5.03;;
50851;SDS011;43953;45.508;-122.806;2022-08-19T02:24:54;7.47;;;5.93;;
50851;SDS011;43953;45.508;-122.806;2022-08-19T02:25:26;8.05;;;5.57;;
50851;SDS011;43953;45.508;-122.806;2022-08-19T02:25:58;6.30;;;5.53;;
50851;SDS011;43953;45.508;-122.806;2022-08-19T02:26:31;6.18;;;5.60;;
50851;SDS011;43953;45.508;-122.806;2022-08-19T02:27:03;6.90;;;5.63;;
50851;SDS011;43953;45.508;-122.806;2022-08-19T02:27:36;7.97;;;5.68;;
50851;SDS011;43953;45.508;-122.806;2022-08-19T02:28:08;6.07;;;5.47;;
50851;SDS011;43953;45.508;-122.806;2022-08-19T02:28:40;9.00;;;5.50;;
50851;SDS011;43953;45.508;-122.806;2022-08-19T02:29:13;7.68;;;5.72;;
50851;SDS011;43953;45.508;-122.806;2022-08-19T02:29:45;6.78;;;6.10;;
50851;SDS011;43953;45.508;-122.806;2022-08-19T02:30:19;6.35;;;5.60;;
50851;SDS011;43953;45.508;-122.806;2022-08-19T02:30:52;8.40;;;5.65;;
50851;SDS011;43953;45.508;-122.806;2022-08-19T02:31:24;7.57;;;5.75;;
50851;SDS011;43953;45.508;-122.806;2022-08-19T02:31:56;7.82;;;5.75;;
50851;SDS011;43953;45.508;-122.806;2022-08-19T02:32:28;7.75;;;5.50;;
50851;SDS011;43953;45.508;-122.806;2022-08-19T02:33:01;6.75;;;5.90;;
50851;SDS011;43953;45.508;-122.806;2022-08-19T02:33:33;6.38;;;5.70;;
50851;SDS011;43953;45.508;-122.806;2022-08-19T02:34:04;8.18;;;5.55;;
50851;SDS011;43953;45.508;-122.806;2022-08-19T02:34:36;6.60;;;5.43;;
50851;SDS011;43953;45.508;-122.806;2022-08-19T02:35:08;6.72;;;5.97;;
50851;SDS011;43953;45.508;-122.806;2022-08-19T02:35:43;7.50;;;6.00;;
50851;SDS011;43953;45.508;-122.806;2022-08-19T02:36:16;6.18;;;5.57;;
50851;SDS011;43953;45.508;-122.806;2022-08-19T02:36:48;7.70;;;5.60;;
50851;SDS011;43953;45.508;-122.806;2022-08-19T02:37:20;6.97;;;5.60;;
50851;SDS011;43953;45.508;-122.806;2022-08-19T02:38:10;8.50;;;5.75;;
50851;SDS011;43953;45.508;-122.806;2022-08-19T02:38:57;7.18;;;5.95;;
50851;SDS011;43953;45.508;-122.806;2022-08-19T02:39:29;7.93;;;6.20;;
50851;SDS011;43953;45.508;-122.806;2022-08-19T02:40:01;6.10;;;5.50;;
50851;SDS011;43953;45.508;-122.806;2022-08-19T02:40:33;9.32;;;5.82;;
50851;SDS011;43953;45.508;-122.806;2022-08-19T02:41:07;8.18;;;6.10;;
50851;SDS011;43953;45.508;-122.806;2022-08-19T02:41:44;7.10;;;6.05;;
50851;SDS011;43953;45.508;-122.806;2022-08-19T02:42:16;8.65;;;5.65;;
50851;SDS011;43953;45.508;-122.806;2022-08-19T02:42:48;9.52;;;6.18;;
50851;SDS011;43953;45.508;-122.806;2022-08-19T02:43:20;6.82;;;5.72;;
50851;SDS011;43953;45.508;-122.806;2022-08-19T02:43:53;9.60;;;5.63;;
50851;SDS011;43953;45.508;-122.806;2022-08-19T02:44:29;7.15;;;5.75;;
50851;SDS011;43953;45.508;-122.806;2022-08-19T02:45:01;7.70;;;5.50;;
50851;SDS011;43953;45.508;-122.806;2022-08-19T02:45:33;6.20;;;5.40;;
50851;SDS011;43953;45.508;-122.806;2022-08-19T02:46:26;7.03;;;5.68;;
50851;SDS011;43953;45.508;-122.806;2022-08-19T02:46:59;8.93;;;5.53;;
50851;SDS011;43953;45.508;-122.806;2022-08-19T02:47:31;7.25;;;5.57;;
50851;SDS011;43953;45.508;-122.806;2022-08-19T02:48:03;6.80;;;5.57;;
50851;SDS011;43953;45.508;-122.806;2022-08-19T02:48:35;6.82;;;5.68;;
50851;SDS011;43953;45.508;-122.806;2022-08-19T02:49:07;9.32;;;6.10;;
50851;SDS011;43953;45.508;-122.806;2022-08-19T02:49:39;8.68;;;6.20;;
50851;SDS011;43953;45.508;-122.806;2022-08-19T02:50:11;6.03;;;5.40;;
50851;SDS011;43953;45.508;-122.806;2022-08-19T02:50:43;8.20;;;5.47;;
50851;SDS011;43953;45.508;-122.806;2022-08-19T02:51:19;6.47;;;5.80;;
50851;SDS011;43953;45.508;-122.806;2022-08-19T02:52:02;6.78;;;5.60;;
50851;SDS011;43953;45.508;-122.806;2022-08-19T02:52:34;7.68;;;5.97;;
50851;SDS011;43953;45.508;-122.806;2022-08-19T02:53:06;9.50;;;5.82;;
50851;SDS011;43953;45.508;-122.806;2022-08-19T02:53:39;7.20;;;5.50;;
50851;SDS011;43953;45.508;-122.806;2022-08-19T02:54:11;7.57;;;5.82;;
50851;SDS011;43953;45.508;-122.806;2022-08-19T02:54:43;7.53;;;5.78;;
50851;SDS011;43953;45.508;-122.806;2022-08-19T02:55:15;6.47;;;5.63;;
50851;SDS011;43953;45.508;-122.806;2022-08-19T02:55:47;6.45;;;5.85;;
50851;SDS011;43953;45.508;-122.806;2022-08-19T02:56:19;7.97;;;5.28;;
50851;SDS011;43953;45.508;-122.806;2022-08-19T02:56:52;6.57;;;5.53;;
50851;SDS011;43953;45.508;-122.806;2022-08-19T02:57:23;7.65;;;6.10;;
50851;SDS011;43953;45.508;-122.806;2022-08-19T02:57:55;6.55;;;5.57;;
50851;SDS011;43953;45.508;-122.806;2022-08-19T02:58:27;6.75;;;5.43;;
50851;SDS011;43953;45.508;-122.806;2022-08-19T02:58:59;8.52;;;5.53;;
50851;SDS011;43953;45.508;-122.806;2022-08-19T02:59:31;6.63;;;6.00;;
50851;SDS011;43953;45.508;-122.806;2022-08-19T03:00:05;7.70;;;5.65;;
50851;SDS011;43953;45.508;-122.806;2022-08-19T03:00:44;6.82;;;5.70;;
50851;SDS011;43953;45.508;-122.806;2022-08-19T03:01:20;6.40;;;5.80;;
50851;SDS011;43953;45.508;-122.806;2022-08-19T03:01:56;8.32;;;5.70;;
50851;SDS011;43953;45.508;-122.806;2022-08-19T03:02:28;6.63;;;5.53;;
50851;SDS011;43953;45.508;-122.806;2022-08-19T03:03:01;9.95;;;6.53;;
50851;SDS011;43953;45.508;-122.806;2022-08-19T03:03:33;7.18;;;5.65;;
50851;SDS011;43953;45.508;-122.806;2022-08-19T03:04:05;6.57;;;5.63;;
50851;SDS011;43953;45.508;-122.806;2022-08-19T03:04:38;6.55;;;5.82;;
50851;SDS011;43953;45.508;-122.806;2022-08-19T03:05:10;8.55;;;5.80;;
50851;SDS011;43953;45.508;-122.806;2022-08-19T03:05:42;7.95;;;5.90;;
50851;SDS011;43953;45.508;-122.806;2022-08-19T03:06:15;9.02;;;6.07;;
50851;SDS011;43953;45.508;-122.806;2022-08-19T03:06:47;7.18;;;5.82;;
50851;SDS011;43953;45.508;-122.806;2022-08-19T03:07:18;7.50;;;5.85;;
50851;SDS011;43953;45.508;-122.806;2022-08-19T03:07:50;8.18;;;5.80;;
50851;SDS011;43953;45.508;-122.806;2022-08-19T03:08:22;7.32;;;6.15;;
50851;SDS011;43953;45.508;-122.806;2022-08-19T03:08:55;7.57;;;6.07;;
50851;SDS011;43953;45.508;-122.806;2022-08-19T03:09:27;6.30;;;5.70;;
50851;SDS011;43953;45.508;-122.806;2022-08-19T03:10:00;10.77;;;6.40;;
50851;SDS011;43953;45.508;-122.806;2022-08-19T03:10:32;7.57;;;6.10;;
50851;SDS011;43953;45.508;-122.806;2022-08-19T03:11:04;8.23;;;5.97;;
50851;SDS011;43953;45.508;-122.806;2022-08-19T03:11:36;7.03;;;5.72;;
50851;SDS011;43953;45.508;-122.806;2022-08-19T03:12:08;6.25;;;5.63;;
50851;SDS011;43953;45.508;-122.806;2022-08-19T03:12:41;8.15;;;5.85;;
50851;SDS011;43953;45.508;-122.806;2022-08-19T03:13:13;8.95;;;5.88;;